sensor_id;sensor_type;location;lat;lon;timestamp;pressure;altitude;pressure_sealevel;temperature;humidity
32452;BME280;45528;52.102;5.242;2022-09-09T00:00:11;100371.0;;;22.42;61.33
32452;BME280;45528;52.102;5.242;2022-09-09T00:01:54;100372.0;;;22.49;61.04
32452;BME280;45528;52.102;5.242;2022-09-09T00:03:40;100373.0;;;22.39;60.82
32452;BME280;45528;52.102;5.242;2022-09-09T00:05:25;100373.0;;;22.37;60.95
32452;BME280;45528;52.102;5.242;2022-09-09T00:08:59;100367.0;;;22.37;61.08
32452;BME280;45528;52.102;5.242;2022-09-09T00:10:39;100369.0;;;22.41;60.92
32452;BME280;45528;52.102;5.242;2022-09-09T00:12:32;100368.0;;;22.35;60.97
32452;BME280;45528;52.102;5.242;2022-09-09T00:14:18;100366.0;;;22.37;61.05
32452;BME280;45528;52.102;5.242;2022-09-09T00:16:04;100367.0;;;22.29;61.09
32452;BME280;45528;52.102;5.242;2022-09-09T00:19:32;100366.0;;;22.27;60.97
32452;BME280;45528;52.102;5.242;2022-09-09T00:21:16;100363.0;;;22.24;61.09
32452;BME280;45528;52.102;5.242;2022-09-09T00:22:59;100359.0;;;22.23;60.83
32452;BME280;45528;52.102;5.242;2022-09-09T00:24:42;100360.0;;;22.19;61.24
32452;BME280;45528;52.102;5.242;2022-09-09T00:26:26;100355.0;;;22.21;61.06
32452;BME280;45528;52.102;5.242;2022-09-09T00:29:56;100357.0;;;22.2;61.09
32452;BME280;45528;52.102;5.242;2022-09-09T00:31:37;100356.0;;;22.14;61.44
32452;BME280;45528;52.102;5.242;2022-09-09T00:33:19;100351.0;;;22.18;61.01
32452;BME280;45528;52.102;5.242;2022-09-09T00:34:58;100355.0;;;22.13;61.23
32452;BME280;45528;52.102;5.242;2022-09-09T00:36:38;100355.0;;;22.13;61.24
32452;BME280;45528;52.102;5.242;2022-09-09T00:39:59;100350.0;;;22.11;61.11
32452;BME280;45528;52.102;5.242;2022-09-09T00:41:49;100346.0;;;22.04;61.13
32452;BME280;45528;52.102;5.242;2022-09-09T00:43:39;100346.0;;;21.98;61.12
32452;BME280;45528;52.102;5.242;2022-09-09T00:45:39;100344.0;;;21.98;61.34
32452;BME280;45528;52.102;5.242;2022-09-09T00:47:36;100344.0;;;21.99;61.4
32452;BME280;45528;52.102;5.242;2022-09-09T00:49:38;100351.0;;;21.98;61.18
32452;BME280;45528;52.102;5.242;2022-09-09T00:51:27;100350.0;;;21.95;61.45
32452;BME280;45528;52.102;5.242;2022-09-09T00:55:12;100357.0;;;21.99;61.43
32452;BME280;45528;52.102;5.242;2022-09-09T00:57:00;100355.0;;;22.02;61.24
32452;BME280;45528;52.102;5.242;2022-09-09T00:58:43;100355.0;;;22.07;60.95
32452;BME280;45528;52.102;5.242;2022-09-09T01:00:29;100359.0;;;22.02;61.03
32452;BME280;45528;52.102;5.242;2022-09-09T01:02:15;100359.0;;;22.0;61.3
32452;BME280;45528;52.102;5.242;2022-09-09T01:03:56;100359.0;;;21.94;61.23
32452;BME280;45528;52.102;5.242;2022-09-09T01:07:17;100360.0;;;21.95;60.94
32452;BME280;45528;52.102;5.242;2022-09-09T01:09:07;100359.0;;;21.93;61.2
32452;BME280;45528;52.102;5.242;2022-09-09T01:10:58;100355.0;;;21.9;60.99
32452;BME280;45528;52.102;5.242;2022-09-09T01:12:39;100352.0;;;21.9;61.0
32452;BME280;45528;52.102;5.242;2022-09-09T01:14:29;100352.0;;;21.84;61.28
32452;BME280;45528;52.102;5.242;2022-09-09T01:17:55;100352.0;;;21.79;61.56
32452;BME280;45528;52.102;5.242;2022-09-09T01:19:44;100349.0;;;21.67;61.71
32452;BME280;45528;52.102;5.242;2022-09-09T01:21:32;100350.0;;;21.64;61.71
32452;BME280;45528;52.102;5.242;2022-09-09T01:23:24;100344.0;;;21.68;61.74
32452;BME280;45528;52.102;5.242;2022-09-09T01:25:22;100340.0;;;21.65;61.63
32452;BME280;45528;52.102;5.242;2022-09-09T01:27:52;100344.0;;;21.61;61.42
32452;BME280;45528;52.102;5.242;2022-09-09T01:29:32;100343.0;;;21.59;61.64
32452;BME280;45528;52.102;5.242;2022-09-09T01:31:11;100342.0;;;21.51;62.0
32452;BME280;45528;52.102;5.242;2022-09-09T01:34:33;100339.0;;;21.46;61.98
32452;BME280;45528;52.102;5.242;2022-09-09T01:36:20;100341.0;;;21.53;61.77
32452;BME280;45528;52.102;5.242;2022-09-09T01:38:00;100337.0;;;21.43;61.84
32452;BME280;45528;52.102;5.242;2022-09-09T01:39:39;100340.0;;;21.41;61.92
32452;BME280;45528;52.102;5.242;2022-09-09T01:42:55;100340.0;;;21.37;62.06
32452;BME280;45528;52.102;5.242;2022-09-09T01:44:33;100340.0;;;21.39;61.79
32452;BME280;45528;52.102;5.242;2022-09-09T01:46:11;100341.0;;;21.39;61.93
32452;BME280;45528;52.102;5.242;2022-09-09T01:47:49;100336.0;;;21.36;61.92
32452;BME280;45528;52.102;5.242;2022-09-09T01:51:03;100336.0;;;21.35;61.95
32452;BME280;45528;52.102;5.242;2022-09-09T01:52:39;100331.0;;;21.29;62.22
32452;BME280;45528;52.102;5.242;2022-09-09T01:54:16;100330.0;;;21.34;62.07
32452;BME280;45528;52.102;5.242;2022-09-09T01:57:48;100327.0;;;21.34;62.04
32452;BME280;45528;52.102;5.242;2022-09-09T01:59:42;100324.0;;;21.29;62.02
32452;BME280;45528;52.102;5.242;2022-09-09T02:01:32;100323.0;;;21.26;62.26
32452;BME280;45528;52.102;5.242;2022-09-09T02:03:20;100322.0;;;21.23;62.2
32452;BME280;45528;52.102;5.242;2022-09-09T02:05:09;100324.0;;;21.18;62.39
32452;BME280;45528;52.102;5.242;2022-09-09T02:06:55;100322.0;;;21.17;62.16
32452;BME280;45528;52.102;5.242;2022-09-09T02:10:21;100313.0;;;21.16;62.22
32452;BME280;45528;52.102;5.242;2022-09-09T02:12:08;100312.0;;;21.2;62.14
32452;BME280;45528;52.102;5.242;2022-09-09T02:13:50;100309.0;;;21.24;61.71
32452;BME280;45528;52.102;5.242;2022-09-09T02:15:32;100307.0;;;21.22;61.95
32452;BME280;45528;52.102;5.242;2022-09-09T02:17:17;100306.0;;;21.23;61.65
32452;BME280;45528;52.102;5.242;2022-09-09T02:20:42;100308.0;;;21.26;61.59
32452;BME280;45528;52.102;5.242;2022-09-09T02:22:22;100308.0;;;21.27;61.5
32452;BME280;45528;52.102;5.242;2022-09-09T02:24:02;100313.0;;;21.21;61.51
32452;BME280;45528;52.102;5.242;2022-09-09T02:25:41;100314.0;;;21.22;61.49
32452;BME280;45528;52.102;5.242;2022-09-09T02:28:59;100319.0;;;21.19;61.74
32452;BME280;45528;52.102;5.242;2022-09-09T02:30:40;100319.0;;;21.22;61.67
32452;BME280;45528;52.102;5.242;2022-09-09T02:32:21;100313.0;;;21.17;61.7
32452;BME280;45528;52.102;5.242;2022-09-09T02:34:00;100311.0;;;21.12;61.64
32452;BME280;45528;52.102;5.242;2022-09-09T02:37:20;100309.0;;;21.18;61.75
32452;BME280;45528;52.102;5.242;2022-09-09T02:38:58;100308.0;;;21.2;61.5
32452;BME280;45528;52.102;5.242;2022-09-09T02:40:35;100312.0;;;21.2;61.33
32452;BME280;45528;52.102;5.242;2022-09-09T02:42:11;100313.0;;;21.23;61.4
32452;BME280;45528;52.102;5.242;2022-09-09T02:45:27;100311.0;;;21.22;61.39
32452;BME280;45528;52.102;5.242;2022-09-09T02:47:19;100308.0;;;21.13;61.51
32452;BME280;45528;52.102;5.242;2022-09-09T02:49:02;100306.0;;;21.12;61.56
32452;BME280;45528;52.102;5.242;2022-09-09T02:50:51;100308.0;;;21.1;61.56
32452;BME280;45528;52.102;5.242;2022-09-09T02:54:23;100306.0;;;21.1;61.67
32452;BME280;45528;52.102;5.242;2022-09-09T02:56:04;100306.0;;;21.13;61.63
32452;BME280;45528;52.102;5.242;2022-09-09T02:57:48;100307.0;;;21.14;61.45
32452;BME280;45528;52.102;5.242;2022-09-09T02:59:26;100298.0;;;21.07;61.55
32452;BME280;45528;52.102;5.242;2022-09-09T03:01:03;100300.0;;;21.03;61.61
32452;BME280;45528;52.102;5.242;2022-09-09T03:04:15;100303.0;;;21.03;61.7
32452;BME280;45528;52.102;5.242;2022-09-09T03:05:52;100303.0;;;21.02;61.58
32452;BME280;45528;52.102;5.242;2022-09-09T03:07:28;100299.0;;;20.99;61.6
32452;BME280;45528;52.102;5.242;2022-09-09T03:10:40;100296.0;;;21.03;61.6
32452;BME280;45528;52.102;5.242;2022-09-09T03:12:16;100301.0;;;21.01;61.51
32452;BME280;45528;52.102;5.242;2022-09-09T03:13:53;100298.0;;;21.04;61.44
32452;BME280;45528;52.102;5.242;2022-09-09T03:17:09;100297.0;;;21.05;61.46
32452;BME280;45528;52.102;5.242;2022-09-09T03:18:46;100298.0;;;20.96;61.65
32452;BME280;45528;52.102;5.242;2022-09-09T03:20:22;100290.0;;;20.93;61.57
32452;BME280;45528;52.102;5.242;2022-09-09T03:22:00;100294.0;;;20.85;61.76
32452;BME280;45528;52.102;5.242;2022-09-09T03:25:12;100288.0;;;20.89;61.74
32452;BME280;45528;52.102;5.242;2022-09-09T03:26:50;100296.0;;;20.9;61.83
32452;BME280;45528;52.102;5.242;2022-09-09T03:28:31;100290.0;;;20.91;61.59
32452;BME280;45528;52.102;5.242;2022-09-09T03:31:44;100292.0;;;20.93;61.72
32452;BME280;45528;52.102;5.242;2022-09-09T03:33:20;100297.0;;;20.95;61.62
32452;BME280;45528;52.102;5.242;2022-09-09T03:34:56;100288.0;;;20.95;61.51
32452;BME280;45528;52.102;5.242;2022-09-09T03:36:33;100290.0;;;20.94;61.64
32452;BME280;45528;52.102;5.242;2022-09-09T03:39:46;100290.0;;;20.88;61.93
32452;BME280;45528;52.102;5.242;2022-09-09T03:41:24;100289.0;;;20.94;61.74
32452;BME280;45528;52.102;5.242;2022-09-09T03:43:01;100291.0;;;20.9;61.73
32452;BME280;45528;52.102;5.242;2022-09-09T03:46:13;100286.0;;;20.92;61.68
32452;BME280;45528;52.102;5.242;2022-09-09T03:47:50;100283.0;;;20.98;61.48
32452;BME280;45528;52.102;5.242;2022-09-09T03:49:28;100284.0;;;20.93;61.86
32452;BME280;45528;52.102;5.242;2022-09-09T03:52:42;100287.0;;;20.99;61.62
32452;BME280;45528;52.102;5.242;2022-09-09T03:54:18;100289.0;;;21.02;61.33
32452;BME280;45528;52.102;5.242;2022-09-09T03:55:55;100286.0;;;21.01;61.34
32452;BME280;45528;52.102;5.242;2022-09-09T03:57:35;100292.0;;;21.05;61.24
32452;BME280;45528;52.102;5.242;2022-09-09T04:00:53;100288.0;;;21.07;61.29
32452;BME280;45528;52.102;5.242;2022-09-09T04:02:30;100288.0;;;21.11;60.87
32452;BME280;45528;52.102;5.242;2022-09-09T04:04:08;100285.0;;;21.06;61.11
32452;BME280;45528;52.102;5.242;2022-09-09T04:07:25;100288.0;;;21.05;60.9
32452;BME280;45528;52.102;5.242;2022-09-09T04:09:03;100290.0;;;21.01;61.15
32452;BME280;45528;52.102;5.242;2022-09-09T04:10:39;100287.0;;;21.05;61.1
32452;BME280;45528;52.102;5.242;2022-09-09T04:12:16;100287.0;;;21.07;61.19
32452;BME280;45528;52.102;5.242;2022-09-09T04:15:29;100280.0;;;21.1;60.98
32452;BME280;45528;52.102;5.242;2022-09-09T04:17:06;100274.0;;;21.02;61.18
32452;BME280;45528;52.102;5.242;2022-09-09T04:18:42;100275.0;;;21.01;61.17
32452;BME280;45528;52.102;5.242;2022-09-09T04:21:55;100275.0;;;21.0;61.36
32452;BME280;45528;52.102;5.242;2022-09-09T04:23:32;100280.0;;;20.98;61.43
32452;BME280;45528;52.102;5.242;2022-09-09T04:25:08;100271.0;;;20.97;61.55
32452;BME280;45528;52.102;5.242;2022-09-09T04:28:24;100275.0;;;20.99;61.56
32452;BME280;45528;52.102;5.242;2022-09-09T04:30:01;100267.0;;;20.98;61.58
32452;BME280;45528;52.102;5.242;2022-09-09T04:31:42;100265.0;;;20.99;61.56
32452;BME280;45528;52.102;5.242;2022-09-09T04:33:18;100267.0;;;20.95;61.81
32452;BME280;45528;52.102;5.242;2022-09-09T04:36:31;100269.0;;;21.03;61.4
32452;BME280;45528;52.102;5.242;2022-09-09T04:38:09;100264.0;;;20.98;61.59
32452;BME280;45528;52.102;5.242;2022-09-09T04:39:45;100260.0;;;20.9;61.78
32452;BME280;45528;52.102;5.242;2022-09-09T04:42:58;100255.0;;;20.87;61.84
32452;BME280;45528;52.102;5.242;2022-09-09T04:44:35;100255.0;;;20.84;61.87
32452;BME280;45528;52.102;5.242;2022-09-09T04:46:11;100255.0;;;20.79;62.14
32452;BME280;45528;52.102;5.242;2022-09-09T04:47:47;100249.0;;;20.77;62.03
32452;BME280;45528;52.102;5.242;2022-09-09T04:51:01;100250.0;;;20.78;62.05
32452;BME280;45528;52.102;5.242;2022-09-09T04:52:37;100255.0;;;20.78;61.99
32452;BME280;45528;52.102;5.242;2022-09-09T04:54:14;100259.0;;;20.79;61.92
32452;BME280;45528;52.102;5.242;2022-09-09T04:57:26;100261.0;;;20.77;62.04
32452;BME280;45528;52.102;5.242;2022-09-09T04:59:03;100257.0;;;20.83;61.77
32452;BME280;45528;52.102;5.242;2022-09-09T05:00:38;100255.0;;;20.78;62.01
32452;BME280;45528;52.102;5.242;2022-09-09T05:03:52;100257.0;;;20.71;62.3
32452;BME280;45528;52.102;5.242;2022-09-09T05:05:28;100256.0;;;20.78;62.03
32452;BME280;45528;52.102;5.242;2022-09-09T05:07:04;100259.0;;;20.89;61.72
32452;BME280;45528;52.102;5.242;2022-09-09T05:08:41;100253.0;;;20.84;61.99
32452;BME280;45528;52.102;5.242;2022-09-09T05:11:58;100256.0;;;20.85;62.04
32452;BME280;45528;52.102;5.242;2022-09-09T05:13:34;100255.0;;;20.77;62.26
32452;BME280;45528;52.102;5.242;2022-09-09T05:15:10;100251.0;;;20.8;62.2
32452;BME280;45528;52.102;5.242;2022-09-09T05:18:23;100248.0;;;20.72;62.32
32452;BME280;45528;52.102;5.242;2022-09-09T05:20:00;100251.0;;;20.79;62.25
32452;BME280;45528;52.102;5.242;2022-09-09T05:21:36;100248.0;;;20.79;62.16
32452;BME280;45528;52.102;5.242;2022-09-09T05:24:50;100243.0;;;20.79;62.41
32452;BME280;45528;52.102;5.242;2022-09-09T05:26:26;100242.0;;;20.81;62.2
32452;BME280;45528;52.102;5.242;2022-09-09T05:28:02;100249.0;;;20.79;62.2
32452;BME280;45528;52.102;5.242;2022-09-09T05:29:39;100249.0;;;20.89;61.89
32452;BME280;45528;52.102;5.242;2022-09-09T05:32:55;100255.0;;;20.88;61.78
32452;BME280;45528;52.102;5.242;2022-09-09T05:34:32;100252.0;;;20.9;62.06
32452;BME280;45528;52.102;5.242;2022-09-09T05:36:10;100250.0;;;20.95;61.91
32452;BME280;45528;52.102;5.242;2022-09-09T05:39:23;100242.0;;;21.02;62.0
32452;BME280;45528;52.102;5.242;2022-09-09T05:41:01;100239.0;;;21.07;61.6
32452;BME280;45528;52.102;5.242;2022-09-09T05:42:37;100236.0;;;21.03;61.68
32452;BME280;45528;52.102;5.242;2022-09-09T05:44:13;100238.0;;;21.03;61.89
32452;BME280;45528;52.102;5.242;2022-09-09T05:47:36;100237.0;;;21.04;61.83
32452;BME280;45528;52.102;5.242;2022-09-09T05:49:12;100238.0;;;21.0;61.88
32452;BME280;45528;52.102;5.242;2022-09-09T05:50:52;100245.0;;;21.0;62.14
32452;BME280;45528;52.102;5.242;2022-09-09T05:54:05;100248.0;;;21.11;61.81
32452;BME280;45528;52.102;5.242;2022-09-09T05:55:42;100255.0;;;21.21;61.54
32452;BME280;45528;52.102;5.242;2022-09-09T05:57:19;100255.0;;;21.24;61.36
32452;BME280;45528;52.102;5.242;2022-09-09T05:58:56;100259.0;;;21.34;61.08
32452;BME280;45528;52.102;5.242;2022-09-09T06:02:09;100257.0;;;21.41;60.98
32452;BME280;45528;52.102;5.242;2022-09-09T06:03:46;100260.0;;;21.41;61.17
32452;BME280;45528;52.102;5.242;2022-09-09T06:05:23;100259.0;;;21.44;61.21
32452;BME280;45528;52.102;5.242;2022-09-09T06:08:39;100255.0;;;21.42;61.3
32452;BME280;45528;52.102;5.242;2022-09-09T06:10:16;100257.0;;;21.42;61.46
32452;BME280;45528;52.102;5.242;2022-09-09T06:11:54;100256.0;;;21.48;61.47
32452;BME280;45528;52.102;5.242;2022-09-09T06:13:30;100255.0;;;21.53;61.01
32452;BME280;45528;52.102;5.242;2022-09-09T06:16:46;100255.0;;;21.46;61.36
32452;BME280;45528;52.102;5.242;2022-09-09T06:18:22;100255.0;;;21.36;61.46
32452;BME280;45528;52.102;5.242;2022-09-09T06:19:59;100253.0;;;21.38;61.82
32452;BME280;45528;52.102;5.242;2022-09-09T06:23:13;100250.0;;;21.4;61.77
32452;BME280;45528;52.102;5.242;2022-09-09T06:24:49;100250.0;;;21.36;61.98
32452;BME280;45528;52.102;5.242;2022-09-09T06:26:27;100251.0;;;21.44;61.95
32452;BME280;45528;52.102;5.242;2022-09-09T06:29:39;100253.0;;;21.51;62.08
32452;BME280;45528;52.102;5.242;2022-09-09T06:31:18;100251.0;;;21.6;61.75
32452;BME280;45528;52.102;5.242;2022-09-09T06:32:56;100250.0;;;21.64;61.76
32452;BME280;45528;52.102;5.242;2022-09-09T06:34:32;100248.0;;;21.73;61.73
32452;BME280;45528;52.102;5.242;2022-09-09T06:37:48;100249.0;;;21.77;61.73
32452;BME280;45528;52.102;5.242;2022-09-09T06:39:24;100246.0;;;21.8;61.82
32452;BME280;45528;52.102;5.242;2022-09-09T06:41:02;100245.0;;;21.86;61.8
32452;BME280;45528;52.102;5.242;2022-09-09T06:44:15;100244.0;;;21.94;61.64
32452;BME280;45528;52.102;5.242;2022-09-09T06:45:53;100247.0;;;21.97;61.62
32452;BME280;45528;52.102;5.242;2022-09-09T06:47:30;100247.0;;;22.06;61.54
32452;BME280;45528;52.102;5.242;2022-09-09T06:49:07;100243.0;;;22.06;61.57
32452;BME280;45528;52.102;5.242;2022-09-09T06:52:19;100239.0;;;22.05;61.58
32452;BME280;45528;52.102;5.242;2022-09-09T06:53:57;100242.0;;;22.23;61.53
32452;BME280;45528;52.102;5.242;2022-09-09T06:55:35;100241.0;;;22.09;61.84
32452;BME280;45528;52.102;5.242;2022-09-09T06:58:49;100246.0;;;22.19;61.12
32452;BME280;45528;52.102;5.242;2022-09-09T07:00:26;100247.0;;;22.49;60.77
32452;BME280;45528;52.102;5.242;2022-09-09T07:02:03;100248.0;;;22.52;60.47
32452;BME280;45528;52.102;5.242;2022-09-09T07:05:16;100248.0;;;22.41;60.78
32452;BME280;45528;52.102;5.242;2022-09-09T07:06:52;100246.0;;;22.55;60.27
32452;BME280;45528;52.102;5.242;2022-09-09T07:08:28;100248.0;;;22.4;60.47
32452;BME280;45528;52.102;5.242;2022-09-09T07:10:05;100248.0;;;22.62;60.25
32452;BME280;45528;52.102;5.242;2022-09-09T07:13:23;100244.0;;;22.61;60.55
32452;BME280;45528;52.102;5.242;2022-09-09T07:15:01;100248.0;;;22.74;60.05
32452;BME280;45528;52.102;5.242;2022-09-09T07:16:37;100236.0;;;22.84;60.11
32452;BME280;45528;52.102;5.242;2022-09-09T07:19:49;100236.0;;;22.94;59.87
32452;BME280;45528;52.102;5.242;2022-09-09T07:21:28;100231.0;;;22.92;60.0
32452;BME280;45528;52.102;5.242;2022-09-09T07:23:04;100235.0;;;22.96;59.67
32452;BME280;45528;52.102;5.242;2022-09-09T07:24:41;100243.0;;;23.12;59.33
32452;BME280;45528;52.102;5.242;2022-09-09T07:27:57;100249.0;;;23.12;59.02
32452;BME280;45528;52.102;5.242;2022-09-09T07:29:33;100242.0;;;23.15;58.45
32452;BME280;45528;52.102;5.242;2022-09-09T07:34:27;100250.0;;;23.32;58.76
32452;BME280;45528;52.102;5.242;2022-09-09T07:36:06;100241.0;;;23.24;58.62
32452;BME280;45528;52.102;5.242;2022-09-09T07:37:43;100259.0;;;23.24;58.74
32452;BME280;45528;52.102;5.242;2022-09-09T07:39:20;100252.0;;;23.12;58.56
32452;BME280;45528;52.102;5.242;2022-09-09T07:42:39;100253.0;;;23.25;58.48
32452;BME280;45528;52.102;5.242;2022-09-09T07:44:18;100259.0;;;23.16;58.74
32452;BME280;45528;52.102;5.242;2022-09-09T07:45:57;100259.0;;;23.24;58.44
32452;BME280;45528;52.102;5.242;2022-09-09T07:49:10;100256.0;;;23.25;58.59
32452;BME280;45528;52.102;5.242;2022-09-09T07:50:47;100261.0;;;23.23;58.53
32452;BME280;45528;52.102;5.242;2022-09-09T07:52:23;100266.0;;;23.05;58.58
32452;BME280;45528;52.102;5.242;2022-09-09T07:54:01;100261.0;;;23.11;58.41
32452;BME280;45528;52.102;5.242;2022-09-09T07:57:16;100265.0;;;23.19;58.26
32452;BME280;45528;52.102;5.242;2022-09-09T07:58:53;100261.0;;;23.22;58.36
32452;BME280;45528;52.102;5.242;2022-09-09T08:00:31;100269.0;;;23.25;58.49
32452;BME280;45528;52.102;5.242;2022-09-09T08:03:45;100263.0;;;23.26;58.19
32452;BME280;45528;52.102;5.242;2022-09-09T08:05:28;100264.0;;;23.2;58.5
32452;BME280;45528;52.102;5.242;2022-09-09T08:07:04;100256.0;;;23.3;58.21
32452;BME280;45528;52.102;5.242;2022-09-09T08:08:41;100261.0;;;23.19;58.4
32452;BME280;45528;52.102;5.242;2022-09-09T08:11:57;100258.0;;;22.98;58.13
32452;BME280;45528;52.102;5.242;2022-09-09T08:13:33;100260.0;;;23.07;58.08
32452;BME280;45528;52.102;5.242;2022-09-09T08:15:11;100263.0;;;23.09;58.16
32452;BME280;45528;52.102;5.242;2022-09-09T08:18:26;100252.0;;;23.09;58.36
32452;BME280;45528;52.102;5.242;2022-09-09T08:20:06;100255.0;;;23.06;58.4
32452;BME280;45528;52.102;5.242;2022-09-09T08:21:43;100260.0;;;23.14;57.99
32452;BME280;45528;52.102;5.242;2022-09-09T08:23:21;100264.0;;;23.01;57.97
32452;BME280;45528;52.102;5.242;2022-09-09T08:26:36;100266.0;;;23.05;58.02
32452;BME280;45528;52.102;5.242;2022-09-09T08:28:12;100267.0;;;22.94;58.5
32452;BME280;45528;52.102;5.242;2022-09-09T08:29:48;100266.0;;;22.98;58.21
32452;BME280;45528;52.102;5.242;2022-09-09T08:33:05;100268.0;;;23.04;58.07
32452;BME280;45528;52.102;5.242;2022-09-09T08:34:41;100266.0;;;22.94;57.92
32452;BME280;45528;52.102;5.242;2022-09-09T08:36:20;100262.0;;;23.02;58.03
32452;BME280;45528;52.102;5.242;2022-09-09T08:37:58;100264.0;;;23.26;57.53
32452;BME280;45528;52.102;5.242;2022-09-09T08:41:32;100267.0;;;23.35;57.46
32452;BME280;45528;52.102;5.242;2022-09-09T08:43:43;100268.0;;;23.52;57.21
32452;BME280;45528;52.102;5.242;2022-09-09T08:45:29;100274.0;;;23.57;57.15
32452;BME280;45528;52.102;5.242;2022-09-09T08:47:12;100272.0;;;23.53;56.7
32452;BME280;45528;52.102;5.242;2022-09-09T08:49:02;100278.0;;;23.52;56.89
32452;BME280;45528;52.102;5.242;2022-09-09T08:50:44;100284.0;;;23.43;56.99
32452;BME280;45528;52.102;5.242;2022-09-09T08:54:04;100288.0;;;23.44;56.77
32452;BME280;45528;52.102;5.242;2022-09-09T08:55:45;100286.0;;;23.47;56.51
32452;BME280;45528;52.102;5.242;2022-09-09T08:57:23;100280.0;;;23.35;56.7
32452;BME280;45528;52.102;5.242;2022-09-09T08:59:04;100287.0;;;23.49;56.94
32452;BME280;45528;52.102;5.242;2022-09-09T09:02:53;100288.0;;;23.44;57.1
32452;BME280;45528;52.102;5.242;2022-09-09T09:04:44;100287.0;;;23.38;57.07
32452;BME280;45528;52.102;5.242;2022-09-09T09:06:39;100293.0;;;23.47;56.74
32452;BME280;45528;52.102;5.242;2022-09-09T09:08:26;100286.0;;;23.47;56.45
32452;BME280;45528;52.102;5.242;2022-09-09T09:10:12;100287.0;;;23.51;56.78
32452;BME280;45528;52.102;5.242;2022-09-09T09:12:02;100290.0;;;23.42;56.81
32452;BME280;45528;52.102;5.242;2022-09-09T09:13:46;100296.0;;;23.47;56.71
32452;BME280;45528;52.102;5.242;2022-09-09T09:17:15;100291.0;;;23.48;56.67
32452;BME280;45528;52.102;5.242;2022-09-09T09:18:55;100293.0;;;23.51;56.67
32452;BME280;45528;52.102;5.242;2022-09-09T09:20:37;100292.0;;;23.53;56.62
32452;BME280;45528;52.102;5.242;2022-09-09T09:22:21;100293.0;;;23.5;56.57
32452;BME280;45528;52.102;5.242;2022-09-09T09:24:00;100293.0;;;23.52;56.68
32452;BME280;45528;52.102;5.242;2022-09-09T09:27:32;100299.0;;;23.57;56.47
32452;BME280;45528;52.102;5.242;2022-09-09T09:29:11;100296.0;;;23.49;56.46
32452;BME280;45528;52.102;5.242;2022-09-09T09:30:50;100297.0;;;23.52;56.57
32452;BME280;45528;52.102;5.242;2022-09-09T09:32:33;100296.0;;;23.42;56.82
32452;BME280;45528;52.102;5.242;2022-09-09T09:35:49;100299.0;;;23.48;56.76
32452;BME280;45528;52.102;5.242;2022-09-09T09:37:28;100293.0;;;23.48;56.76
32452;BME280;45528;52.102;5.242;2022-09-09T09:39:06;100301.0;;;23.48;57.04
32452;BME280;45528;52.102;5.242;2022-09-09T09:40:49;100300.0;;;23.45;56.86
32452;BME280;45528;52.102;5.242;2022-09-09T09:44:23;100310.0;;;23.48;57.24
32452;BME280;45528;52.102;5.242;2022-09-09T09:46:00;100309.0;;;23.48;58.15
32452;BME280;45528;52.102;5.242;2022-09-09T09:47:41;100306.0;;;23.21;59.59
32452;BME280;45528;52.102;5.242;2022-09-09T09:49:17;100302.0;;;23.18;60.12
32452;BME280;45528;52.102;5.242;2022-09-09T09:52:35;100302.0;;;23.1;60.35
32452;BME280;45528;52.102;5.242;2022-09-09T09:54:18;100305.0;;;23.08;60.5
32452;BME280;45528;52.102;5.242;2022-09-09T09:56:01;100301.0;;;23.09;60.86
32452;BME280;45528;52.102;5.242;2022-09-09T09:57:39;100303.0;;;23.02;60.95
32452;BME280;45528;52.102;5.242;2022-09-09T10:01:20;100294.0;;;22.96;61.3
32452;BME280;45528;52.102;5.242;2022-09-09T10:02:59;100301.0;;;22.93;61.45
32452;BME280;45528;52.102;5.242;2022-09-09T10:04:36;100295.0;;;22.92;61.49
32452;BME280;45528;52.102;5.242;2022-09-09T10:06:12;100296.0;;;22.82;61.95
32452;BME280;45528;52.102;5.242;2022-09-09T10:08:00;100296.0;;;22.83;62.02
32452;BME280;45528;52.102;5.242;2022-09-09T10:11:26;100292.0;;;22.86;62.02
32452;BME280;45528;52.102;5.242;2022-09-09T10:13:11;100294.0;;;22.92;61.71
32452;BME280;45528;52.102;5.242;2022-09-09T10:14:57;100291.0;;;22.86;61.62
32452;BME280;45528;52.102;5.242;2022-09-09T10:16:49;100295.0;;;22.96;61.27
32452;BME280;45528;52.102;5.242;2022-09-09T10:18:38;100293.0;;;23.08;61.03
32452;BME280;45528;52.102;5.242;2022-09-09T10:20:32;100303.0;;;23.02;61.13
32452;BME280;45528;52.102;5.242;2022-09-09T10:24:13;100310.0;;;22.78;61.2
32452;BME280;45528;52.102;5.242;2022-09-09T10:26:12;100308.0;;;22.92;60.86
32452;BME280;45528;52.102;5.242;2022-09-09T10:31:03;100309.0;;;22.94;61.39
32452;BME280;45528;52.102;5.242;2022-09-09T10:34:53;100307.0;;;22.99;61.71
32452;BME280;45528;52.102;5.242;2022-09-09T10:36:32;100305.0;;;22.95;62.4
32452;BME280;45528;52.102;5.242;2022-09-09T10:38:16;100305.0;;;22.97;62.86
32452;BME280;45528;52.102;5.242;2022-09-09T10:40:02;100301.0;;;23.13;62.5
32452;BME280;45528;52.102;5.242;2022-09-09T10:41:57;100295.0;;;23.27;62.31
32452;BME280;45528;52.102;5.242;2022-09-09T10:43:50;100293.0;;;23.28;62.2
32452;BME280;45528;52.102;5.242;2022-09-09T10:45:44;100293.0;;;23.4;62.09
32452;BME280;45528;52.102;5.242;2022-09-09T10:49:34;100292.0;;;23.48;61.93
32452;BME280;45528;52.102;5.242;2022-09-09T10:51:23;100297.0;;;23.43;61.71
32452;BME280;45528;52.102;5.242;2022-09-09T10:53:12;100296.0;;;23.44;61.42
32452;BME280;45528;52.102;5.242;2022-09-09T10:54:58;100293.0;;;23.52;61.19
32452;BME280;45528;52.102;5.242;2022-09-09T10:56:37;100293.0;;;23.41;62.13
32452;BME280;45528;52.102;5.242;2022-09-09T10:58:17;100290.0;;;23.49;61.81
32452;BME280;45528;52.102;5.242;2022-09-09T11:01:44;100292.0;;;23.57;61.67
32452;BME280;45528;52.102;5.242;2022-09-09T11:03:25;100285.0;;;23.5;61.77
32452;BME280;45528;52.102;5.242;2022-09-09T11:05:06;100285.0;;;23.6;61.58
32452;BME280;45528;52.102;5.242;2022-09-09T11:06:54;100289.0;;;23.61;61.51
32452;BME280;45528;52.102;5.242;2022-09-09T11:08:34;100284.0;;;23.54;61.39
32452;BME280;45528;52.102;5.242;2022-09-09T11:12:01;100287.0;;;23.68;60.88